Star Princess — ZCDD6 — position and weather

sailwx.info

Track history (hours):
 
Tides and Currents Weather Stations Pressure Air Temp Water Temp Dewpoint Dewpoint Depression Visibility Wind Speed Wind Dir Waves Ship Positions

Star Princess

Operator: Princess Cruises

Last reported at 2018-May-25 05:30 UTC. Time now 2018-May-25 05:29 UTC.
Position N 54°32' W 131°17'.

Length 289.6 m; beam 36 m; draft 8.4 m.

Type: Ship. MMSI: 310361000.

Date/timePositionNaut miles runAvg speedWind from/ knotsBaromVisibWave heightAir tempDewpointWater temp
2018-May-25 05:30N 54°32' W 131°17'816.9
2018-May-25 05:00N 54°40' W 131°14'917.4
2018-May-25 04:30N 54°48' W 131°10'232 5.6
2018-May-23 11:00N 58°12' W 134°30'27 0.9 340 / 51014.5 5.4 7.5 6.5 9.0
2018-May-22 04:50N 58°10' W 135°21'512.7
2018-May-22 04:26N 58°13' W 135°29'612.7
2018-May-22 04:00N 58°16' W 135°38'713.6
2018-May-22 03:30N 58°19' W 135°50'713.8
2018-May-22 03:00N 58°24' W 135°59'510.9
2018-May-22 02:30N 58°29' W 136°03'612.9
2018-May-22 02:00N 58°35' W 136°03'3 6.6
2018-May-22 01:30N 58°39' W 136°04'713.4
2018-May-22 01:00N 58°44' W 136°12'816.2
2018-May-22 00:30N 58°48' W 136°26'4 0.7
2018-May-21 19:21N 58°51' W 136°30'3 9.8
2018-May-21 19:00N 58°48' W 136°25'917.4
2018-May-21 18:30N 58°43' W 136°12'613.0
2018-May-21 18:00N 58°38' W 136°03'4 8.8
2018-May-21 17:30N 58°34' W 136°03'714.9
2018-May-21 17:00N 58°27' W 136°00'5 9.6
2018-May-21 16:30N 58°22' W 136°01'5 9.8
2018-May-21 16:00N 58°19' W 136°08'2153.0
2018-May-21 16:00N 58°18' W 136°12'41 8.3 080 / 251005.0 5.4 6.5 5.5 8.0
2018-May-21 11:00N 58°12' W 137°30'28311.8 120 / 501003.5 2.2 8.0 6.0 9.0
2018-May-20 11:00N 60°00' W 146°00'90 3.8 110 / 231007.410.8 7.0 6.0 7.0
2018-May-19 11:00N 60°42' W 148°42'40411.6 040 / 161012.3 2.2 7.7 5.3 8.0
2018-May-18 00:13N 58°18' W 136°19'518.3
2018-May-17 23:57N 58°19' W 136°10'716.7
2018-May-17 23:30N 58°24' W 135°59'510.1
2018-May-17 23:00N 58°28' W 136°03'714.6
2018-May-17 22:30N 58°36' W 136°03'5 9.6
2018-May-17 22:00N 58°40' W 136°05'918.0
2018-May-17 21:30N 58°46' W 136°19'1118.7
2018-May-17 20:56N 58°52' W 136°36'4 0.9
2018-May-17 16:27N 58°50' W 136°29'612.8
2018-May-17 15:58N 58°46' W 136°20'817.7
2018-May-17 15:30N 58°40' W 136°08'5 9.1
2018-May-17 15:00N 58°37' W 136°03'815.4
2018-May-17 14:30N 58°29' W 136°03'510.0
2018-May-17 14:00N 58°25' W 135°57'510.6
2018-May-17 13:30N 58°20' W 135°56'713.3
2018-May-17 13:00N 58°18' W 135°44'713.1
2018-May-17 12:29N 58°15' W 135°32'613.3
2018-May-17 12:00N 58°13' W 135°20'30 0.8
2018-May-15 23:00N 58°12' W 134°24'52 4.3 290 / 121019.710.8 11.0-0.2 7.0
2018-May-15 11:00N 57°24' W 133°48'   310 / 261019.710.8 7.0 2.6 7.0
Track history (hours):
 
Tides and Currents Weather Stations Pressure Air Temp Water Temp Dewpoint Dewpoint Depression Visibility Wind Speed Wind Dir Waves Ship Positions

Star Princess

Operator: Princess Cruises

Last reported at 2018-May-25 05:30 UTC. Time now 2018-May-25 05:29 UTC.
Position N 54°32' W 131°17'.

Length 289.6 m; beam 36 m; draft 8.4 m.

Type: Ship. MMSI: 310361000.

Date/timePositionNaut miles runAvg speedWind from/ knotsBaromVisibWave heightAir tempDewpointWater temp
2018-May-25 05:30N 54°32' W 131°17'816.9
2018-May-25 05:00N 54°40' W 131°14'917.4
2018-May-25 04:30N 54°48' W 131°10'232 5.6
2018-May-23 11:00N 58°12' W 134°30'27 0.9 340 / 51014.5 5.4 7.5 6.5 9.0
2018-May-22 04:50N 58°10' W 135°21'512.7
2018-May-22 04:26N 58°13' W 135°29'612.7
2018-May-22 04:00N 58°16' W 135°38'713.6
2018-May-22 03:30N 58°19' W 135°50'713.8
2018-May-22 03:00N 58°24' W 135°59'510.9
2018-May-22 02:30N 58°29' W 136°03'612.9
2018-May-22 02:00N 58°35' W 136°03'3 6.6
2018-May-22 01:30N 58°39' W 136°04'713.4
2018-May-22 01:00N 58°44' W 136°12'816.2
2018-May-22 00:30N 58°48' W 136°26'4 0.7
2018-May-21 19:21N 58°51' W 136°30'3 9.8
2018-May-21 19:00N 58°48' W 136°25'917.4
2018-May-21 18:30N 58°43' W 136°12'613.0
2018-May-21 18:00N 58°38' W 136°03'4 8.8
2018-May-21 17:30N 58°34' W 136°03'714.9
2018-May-21 17:00N 58°27' W 136°00'5 9.6
2018-May-21 16:30N 58°22' W 136°01'5 9.8
2018-May-21 16:00N 58°19' W 136°08'2153.0
2018-May-21 16:00N 58°18' W 136°12'41 8.3 080 / 251005.0 5.4 6.5 5.5 8.0
2018-May-21 11:00N 58°12' W 137°30'28311.8 120 / 501003.5 2.2 8.0 6.0 9.0
2018-May-20 11:00N 60°00' W 146°00'90 3.8 110 / 231007.410.8 7.0 6.0 7.0
2018-May-19 11:00N 60°42' W 148°42'40411.6 040 / 161012.3 2.2 7.7 5.3 8.0
2018-May-18 00:13N 58°18' W 136°19'518.3
2018-May-17 23:57N 58°19' W 136°10'716.7
2018-May-17 23:30N 58°24' W 135°59'510.1
2018-May-17 23:00N 58°28' W 136°03'714.6
2018-May-17 22:30N 58°36' W 136°03'5 9.6
2018-May-17 22:00N 58°40' W 136°05'918.0
2018-May-17 21:30N 58°46' W 136°19'1118.7
2018-May-17 20:56N 58°52' W 136°36'4 0.9
2018-May-17 16:27N 58°50' W 136°29'612.8
2018-May-17 15:58N 58°46' W 136°20'817.7
2018-May-17 15:30N 58°40' W 136°08'5 9.1
2018-May-17 15:00N 58°37' W 136°03'815.4
2018-May-17 14:30N 58°29' W 136°03'510.0
2018-May-17 14:00N 58°25' W 135°57'510.6
2018-May-17 13:30N 58°20' W 135°56'713.3
2018-May-17 13:00N 58°18' W 135°44'713.1
2018-May-17 12:29N 58°15' W 135°32'613.3
2018-May-17 12:00N 58°13' W 135°20'30 0.8
2018-May-15 23:00N 58°12' W 134°24'52 4.3 290 / 121019.710.8 11.0-0.2 7.0
2018-May-15 11:00N 57°24' W 133°48'   310 / 261019.710.8 7.0 2.6 7.0

Dump ship's entire track history